sensor_id;sensor_type;location;lat;lon;timestamp;P1;durP1;ratioP1;P2;durP2;ratioP2
7406;SDS011;3745;56.964;24.128;2023-08-08T00:01:28;2.40;;;2.20;;
7406;SDS011;3745;56.964;24.128;2023-08-08T00:03:54;3.13;;;2.15;;
7406;SDS011;3745;56.964;24.128;2023-08-08T00:06:20;4.35;;;2.45;;
7406;SDS011;3745;56.964;24.128;2023-08-08T00:08:45;2.72;;;2.15;;
7406;SDS011;3745;56.964;24.128;2023-08-08T00:11:11;2.70;;;2.20;;
7406;SDS011;3745;56.964;24.128;2023-08-08T00:13:36;2.30;;;2.20;;
7406;SDS011;3745;56.964;24.128;2023-08-08T00:16:02;2.60;;;2.40;;
7406;SDS011;3745;56.964;24.128;2023-08-08T00:18:28;2.80;;;2.38;;
7406;SDS011;3745;56.964;24.128;2023-08-08T00:20:54;2.40;;;2.30;;
7406;SDS011;3745;56.964;24.128;2023-08-08T00:23:19;1.92;;;1.83;;
7406;SDS011;3745;56.964;24.128;2023-08-08T00:25:45;2.13;;;1.92;;
7406;SDS011;3745;56.964;24.128;2023-08-08T00:28:15;2.65;;;1.83;;
7406;SDS011;3745;56.964;24.128;2023-08-08T00:30:40;2.10;;;1.98;;
7406;SDS011;3745;56.964;24.128;2023-08-08T00:33:06;2.40;;;2.30;;
7406;SDS011;3745;56.964;24.128;2023-08-08T00:35:32;3.33;;;2.55;;
7406;SDS011;3745;56.964;24.128;2023-08-08T00:37:57;3.80;;;1.90;;
7406;SDS011;3745;56.964;24.128;2023-08-08T00:40:23;4.13;;;2.20;;
7406;SDS011;3745;56.964;24.128;2023-08-08T00:42:48;2.05;;;1.95;;
7406;SDS011;3745;56.964;24.128;2023-08-08T00:45:14;2.05;;;1.95;;
7406;SDS011;3745;56.964;24.128;2023-08-08T00:47:39;2.40;;;2.20;;
7406;SDS011;3745;56.964;24.128;2023-08-08T00:50:05;5.03;;;1.92;;
7406;SDS011;3745;56.964;24.128;2023-08-08T00:52:32;2.75;;;1.75;;
7406;SDS011;3745;56.964;24.128;2023-08-08T00:54:58;2.03;;;1.92;;
7406;SDS011;3745;56.964;24.128;2023-08-08T00:57:25;2.40;;;1.77;;
7406;SDS011;3745;56.964;24.128;2023-08-08T00:59:51;3.22;;;2.00;;
7406;SDS011;3745;56.964;24.128;2023-08-08T01:02:16;2.17;;;1.98;;
7406;SDS011;3745;56.964;24.128;2023-08-08T01:04:42;3.03;;;2.45;;
7406;SDS011;3745;56.964;24.128;2023-08-08T01:10:00;2.63;;;2.42;;
7406;SDS011;3745;56.964;24.128;2023-08-08T01:12:59;5.72;;;2.72;;
7406;SDS011;3745;56.964;24.128;2023-08-08T01:15:25;2.88;;;2.58;;
7406;SDS011;3745;56.964;24.128;2023-08-08T01:17:51;2.92;;;2.70;;
7406;SDS011;3745;56.964;24.128;2023-08-08T01:20:18;2.78;;;2.28;;
7406;SDS011;3745;56.964;24.128;2023-08-08T01:25:35;2.45;;;2.35;;
7406;SDS011;3745;56.964;24.128;2023-08-08T01:28:01;3.20;;;2.30;;
7406;SDS011;3745;56.964;24.128;2023-08-08T01:30:30;3.22;;;2.03;;
7406;SDS011;3745;56.964;24.128;2023-08-08T01:32:55;2.15;;;2.05;;
7406;SDS011;3745;56.964;24.128;2023-08-08T01:35:21;2.10;;;2.00;;
7406;SDS011;3745;56.964;24.128;2023-08-08T01:37:50;2.05;;;1.95;;
7406;SDS011;3745;56.964;24.128;2023-08-08T01:40:19;1.98;;;1.70;;
7406;SDS011;3745;56.964;24.128;2023-08-08T01:42:47;2.17;;;2.00;;
7406;SDS011;3745;56.964;24.128;2023-08-08T01:45:15;2.85;;;1.98;;
7406;SDS011;3745;56.964;24.128;2023-08-08T01:47:41;2.13;;;1.60;;
7406;SDS011;3745;56.964;24.128;2023-08-08T01:50:07;2.05;;;1.90;;
7406;SDS011;3745;56.964;24.128;2023-08-08T01:52:34;1.90;;;1.80;;
7406;SDS011;3745;56.964;24.128;2023-08-08T01:55:00;1.83;;;1.73;;
7406;SDS011;3745;56.964;24.128;2023-08-08T01:57:26;1.75;;;1.65;;
7406;SDS011;3745;56.964;24.128;2023-08-08T01:59:51;1.60;;;1.38;;
7406;SDS011;3745;56.964;24.128;2023-08-08T02:02:17;2.83;;;1.40;;
7406;SDS011;3745;56.964;24.128;2023-08-08T02:04:43;1.40;;;1.27;;
7406;SDS011;3745;56.964;24.128;2023-08-08T02:07:09;1.30;;;1.30;;
7406;SDS011;3745;56.964;24.128;2023-08-08T02:09:35;1.65;;;1.40;;
7406;SDS011;3745;56.964;24.128;2023-08-08T02:12:00;1.23;;;1.23;;
7406;SDS011;3745;56.964;24.128;2023-08-08T02:14:26;1.50;;;1.40;;
7406;SDS011;3745;56.964;24.128;2023-08-08T02:16:51;1.20;;;1.20;;
7406;SDS011;3745;56.964;24.128;2023-08-08T02:19:17;2.60;;;1.25;;
7406;SDS011;3745;56.964;24.128;2023-08-08T02:21:42;3.05;;;1.65;;
7406;SDS011;3745;56.964;24.128;2023-08-08T02:24:08;1.00;;;1.00;;
7406;SDS011;3745;56.964;24.128;2023-08-08T02:26:33;1.27;;;1.20;;
7406;SDS011;3745;56.964;24.128;2023-08-08T02:28:59;1.85;;;1.20;;
7406;SDS011;3745;56.964;24.128;2023-08-08T02:31:25;4.07;;;1.15;;
7406;SDS011;3745;56.964;24.128;2023-08-08T02:33:50;2.78;;;1.20;;
7406;SDS011;3745;56.964;24.128;2023-08-08T02:36:17;1.00;;;1.00;;
7406;SDS011;3745;56.964;24.128;2023-08-08T02:38:43;5.57;;;1.38;;
7406;SDS011;3745;56.964;24.128;2023-08-08T02:41:09;3.22;;;1.40;;
7406;SDS011;3745;56.964;24.128;2023-08-08T02:43:35;1.25;;;1.25;;
7406;SDS011;3745;56.964;24.128;2023-08-08T02:46:01;2.67;;;1.17;;
7406;SDS011;3745;56.964;24.128;2023-08-08T02:48:26;1.10;;;1.10;;
7406;SDS011;3745;56.964;24.128;2023-08-08T02:50:52;1.67;;;1.20;;
7406;SDS011;3745;56.964;24.128;2023-08-08T02:53:18;2.47;;;1.30;;
7406;SDS011;3745;56.964;24.128;2023-08-08T02:55:43;2.10;;;1.23;;
7406;SDS011;3745;56.964;24.128;2023-08-08T02:58:09;1.50;;;1.40;;
7406;SDS011;3745;56.964;24.128;2023-08-08T03:00:34;1.50;;;1.40;;
7406;SDS011;3745;56.964;24.128;2023-08-08T03:03:00;1.60;;;1.50;;
7406;SDS011;3745;56.964;24.128;2023-08-08T03:05:26;1.85;;;1.45;;
7406;SDS011;3745;56.964;24.128;2023-08-08T03:07:51;1.25;;;1.20;;
7406;SDS011;3745;56.964;24.128;2023-08-08T03:10:17;1.00;;;1.00;;
7406;SDS011;3745;56.964;24.128;2023-08-08T03:12:42;3.83;;;1.63;;
7406;SDS011;3745;56.964;24.128;2023-08-08T03:15:08;6.15;;;1.48;;
7406;SDS011;3745;56.964;24.128;2023-08-08T03:17:35;1.05;;;1.00;;
7406;SDS011;3745;56.964;24.128;2023-08-08T03:20:01;2.58;;;1.50;;
7406;SDS011;3745;56.964;24.128;2023-08-08T03:22:28;1.55;;;1.33;;
7406;SDS011;3745;56.964;24.128;2023-08-08T03:24:54;3.03;;;1.13;;
7406;SDS011;3745;56.964;24.128;2023-08-08T03:27:19;3.08;;;1.17;;
7406;SDS011;3745;56.964;24.128;2023-08-08T03:29:45;1.42;;;1.35;;
7406;SDS011;3745;56.964;24.128;2023-08-08T03:32:10;1.10;;;1.10;;
7406;SDS011;3745;56.964;24.128;2023-08-08T03:34:36;1.67;;;1.23;;
7406;SDS011;3745;56.964;24.128;2023-08-08T03:37:01;5.82;;;1.25;;
7406;SDS011;3745;56.964;24.128;2023-08-08T03:39:27;1.33;;;1.02;;
7406;SDS011;3745;56.964;24.128;2023-08-08T03:41:53;1.08;;;1.08;;
7406;SDS011;3745;56.964;24.128;2023-08-08T03:44:18;1.63;;;1.25;;
7406;SDS011;3745;56.964;24.128;2023-08-08T03:46:44;2.97;;;1.70;;
7406;SDS011;3745;56.964;24.128;2023-08-08T03:49:09;2.15;;;1.48;;
7406;SDS011;3745;56.964;24.128;2023-08-08T03:51:35;1.40;;;1.30;;
7406;SDS011;3745;56.964;24.128;2023-08-08T03:54:00;1.65;;;1.55;;
7406;SDS011;3745;56.964;24.128;2023-08-08T03:56:26;3.28;;;1.55;;
7406;SDS011;3745;56.964;24.128;2023-08-08T03:58:52;1.83;;;1.55;;
7406;SDS011;3745;56.964;24.128;2023-08-08T04:01:18;2.53;;;1.50;;
7406;SDS011;3745;56.964;24.128;2023-08-08T04:03:43;2.00;;;1.58;;
7406;SDS011;3745;56.964;24.128;2023-08-08T04:06:09;1.60;;;1.50;;
7406;SDS011;3745;56.964;24.128;2023-08-08T04:08:34;1.42;;;1.42;;
7406;SDS011;3745;56.964;24.128;2023-08-08T04:11:00;1.63;;;1.52;;
7406;SDS011;3745;56.964;24.128;2023-08-08T04:13:26;2.75;;;1.90;;
7406;SDS011;3745;56.964;24.128;2023-08-08T04:15:51;1.85;;;1.75;;
7406;SDS011;3745;56.964;24.128;2023-08-08T04:18:17;3.45;;;2.13;;
7406;SDS011;3745;56.964;24.128;2023-08-08T04:20:45;3.00;;;2.08;;
7406;SDS011;3745;56.964;24.128;2023-08-08T04:23:11;2.65;;;1.70;;
7406;SDS011;3745;56.964;24.128;2023-08-08T04:25:36;2.25;;;1.63;;
7406;SDS011;3745;56.964;24.128;2023-08-08T04:28:02;3.92;;;2.15;;
7406;SDS011;3745;56.964;24.128;2023-08-08T04:30:28;2.72;;;1.85;;
7406;SDS011;3745;56.964;24.128;2023-08-08T04:32:54;2.58;;;1.92;;
7406;SDS011;3745;56.964;24.128;2023-08-08T04:35:19;2.35;;;1.88;;
7406;SDS011;3745;56.964;24.128;2023-08-08T04:37:45;5.35;;;1.80;;
7406;SDS011;3745;56.964;24.128;2023-08-08T04:40:11;3.33;;;2.00;;
7406;SDS011;3745;56.964;24.128;2023-08-08T04:42:36;3.00;;;2.20;;
7406;SDS011;3745;56.964;24.128;2023-08-08T04:45:02;3.65;;;2.10;;
7406;SDS011;3745;56.964;24.128;2023-08-08T04:47:28;2.17;;;1.98;;
7406;SDS011;3745;56.964;24.128;2023-08-08T04:49:53;2.00;;;1.90;;
7406;SDS011;3745;56.964;24.128;2023-08-08T04:52:19;2.13;;;2.03;;
7406;SDS011;3745;56.964;24.128;2023-08-08T04:54:44;3.10;;;1.80;;
7406;SDS011;3745;56.964;24.128;2023-08-08T04:57:10;1.70;;;1.60;;
7406;SDS011;3745;56.964;24.128;2023-08-08T04:59:35;2.40;;;2.25;;
7406;SDS011;3745;56.964;24.128;2023-08-08T05:02:01;2.70;;;2.28;;
7406;SDS011;3745;56.964;24.128;2023-08-08T05:04:27;2.38;;;2.20;;
7406;SDS011;3745;56.964;24.128;2023-08-08T05:06:52;11.60;;;2.50;;
7406;SDS011;3745;56.964;24.128;2023-08-08T05:09:18;2.67;;;2.20;;
7406;SDS011;3745;56.964;24.128;2023-08-08T05:11:45;4.57;;;1.98;;
7406;SDS011;3745;56.964;24.128;2023-08-08T05:14:11;5.07;;;2.10;;
7406;SDS011;3745;56.964;24.128;2023-08-08T05:16:37;4.38;;;2.05;;
7406;SDS011;3745;56.964;24.128;2023-08-08T05:19:02;2.90;;;2.33;;
7406;SDS011;3745;56.964;24.128;2023-08-08T05:21:28;4.13;;;2.22;;
7406;SDS011;3745;56.964;24.128;2023-08-08T05:23:54;2.08;;;1.98;;
7406;SDS011;3745;56.964;24.128;2023-08-08T05:26:19;2.17;;;2.03;;
7406;SDS011;3745;56.964;24.128;2023-08-08T05:28:45;3.42;;;1.70;;
7406;SDS011;3745;56.964;24.128;2023-08-08T05:31:10;2.03;;;1.92;;
7406;SDS011;3745;56.964;24.128;2023-08-08T05:33:36;2.53;;;2.30;;
7406;SDS011;3745;56.964;24.128;2023-08-08T05:36:02;2.28;;;1.95;;
7406;SDS011;3745;56.964;24.128;2023-08-08T05:38:27;5.43;;;2.10;;
7406;SDS011;3745;56.964;24.128;2023-08-08T05:40:53;4.50;;;2.08;;
7406;SDS011;3745;56.964;24.128;2023-08-08T05:43:19;1.50;;;1.45;;
7406;SDS011;3745;56.964;24.128;2023-08-08T05:45:46;2.50;;;1.77;;
7406;SDS011;3745;56.964;24.128;2023-08-08T05:48:12;1.35;;;1.35;;
7406;SDS011;3745;56.964;24.128;2023-08-08T05:50:38;1.60;;;1.50;;
7406;SDS011;3745;56.964;24.128;2023-08-08T05:53:04;3.42;;;1.48;;
7406;SDS011;3745;56.964;24.128;2023-08-08T05:55:30;1.67;;;1.20;;
7406;SDS011;3745;56.964;24.128;2023-08-08T05:57:56;1.83;;;1.60;;
7406;SDS011;3745;56.964;24.128;2023-08-08T06:00:21;2.50;;;1.50;;
7406;SDS011;3745;56.964;24.128;2023-08-08T06:02:47;1.75;;;1.38;;
7406;SDS011;3745;56.964;24.128;2023-08-08T06:05:13;2.40;;;1.70;;
7406;SDS011;3745;56.964;24.128;2023-08-08T06:07:38;4.63;;;1.50;;
7406;SDS011;3745;56.964;24.128;2023-08-08T06:10:05;1.80;;;1.35;;
7406;SDS011;3745;56.964;24.128;2023-08-08T06:12:31;3.47;;;1.73;;
7406;SDS011;3745;56.964;24.128;2023-08-08T06:14:57;1.20;;;1.20;;
7406;SDS011;3745;56.964;24.128;2023-08-08T06:17:22;1.38;;;1.23;;
7406;SDS011;3745;56.964;24.128;2023-08-08T06:19:49;3.05;;;1.35;;
7406;SDS011;3745;56.964;24.128;2023-08-08T06:22:19;4.15;;;1.42;;
7406;SDS011;3745;56.964;24.128;2023-08-08T06:24:45;3.03;;;1.80;;
7406;SDS011;3745;56.964;24.128;2023-08-08T06:27:10;4.80;;;2.20;;
7406;SDS011;3745;56.964;24.128;2023-08-08T06:29:37;4.68;;;2.03;;
7406;SDS011;3745;56.964;24.128;2023-08-08T06:32:03;2.03;;;1.23;;
7406;SDS011;3745;56.964;24.128;2023-08-08T06:34:29;1.58;;;1.40;;
7406;SDS011;3745;56.964;24.128;2023-08-08T06:36:55;3.28;;;1.50;;
7406;SDS011;3745;56.964;24.128;2023-08-08T06:39:20;4.22;;;1.42;;
7406;SDS011;3745;56.964;24.128;2023-08-08T06:41:47;1.98;;;1.40;;
7406;SDS011;3745;56.964;24.128;2023-08-08T06:44:13;3.58;;;1.52;;
7406;SDS011;3745;56.964;24.128;2023-08-08T06:46:38;2.28;;;1.60;;
7406;SDS011;3745;56.964;24.128;2023-08-08T06:49:04;3.70;;;1.80;;
7406;SDS011;3745;56.964;24.128;2023-08-08T06:51:32;2.38;;;1.50;;
7406;SDS011;3745;56.964;24.128;2023-08-08T06:54:04;3.63;;;1.60;;
7406;SDS011;3745;56.964;24.128;2023-08-08T07:04:47;2.05;;;1.63;;
7406;SDS011;3745;56.964;24.128;2023-08-08T07:07:13;4.22;;;1.98;;
7406;SDS011;3745;56.964;24.128;2023-08-08T07:09:39;6.53;;;2.35;;
7406;SDS011;3745;56.964;24.128;2023-08-08T07:12:05;3.92;;;1.83;;
7406;SDS011;3745;56.964;24.128;2023-08-08T07:14:31;2.92;;;1.98;;
7406;SDS011;3745;56.964;24.128;2023-08-08T07:16:57;7.25;;;2.35;;
7406;SDS011;3745;56.964;24.128;2023-08-08T07:19:23;3.35;;;2.20;;
7406;SDS011;3745;56.964;24.128;2023-08-08T07:21:49;3.05;;;1.95;;
7406;SDS011;3745;56.964;24.128;2023-08-08T07:24:15;2.92;;;1.83;;
7406;SDS011;3745;56.964;24.128;2023-08-08T07:26:41;3.15;;;2.70;;
7406;SDS011;3745;56.964;24.128;2023-08-08T07:29:06;3.55;;;2.15;;
7406;SDS011;3745;56.964;24.128;2023-08-08T07:31:32;4.70;;;2.63;;
7406;SDS011;3745;56.964;24.128;2023-08-08T07:33:58;3.58;;;2.22;;
7406;SDS011;3745;56.964;24.128;2023-08-08T07:36:24;5.30;;;2.60;;
7406;SDS011;3745;56.964;24.128;2023-08-08T07:38:50;7.03;;;2.30;;
7406;SDS011;3745;56.964;24.128;2023-08-08T07:41:15;9.23;;;2.13;;
7406;SDS011;3745;56.964;24.128;2023-08-08T07:43:42;4.60;;;2.30;;
7406;SDS011;3745;56.964;24.128;2023-08-08T07:46:08;6.63;;;2.10;;
7406;SDS011;3745;56.964;24.128;2023-08-08T07:48:34;9.35;;;2.85;;
7406;SDS011;3745;56.964;24.128;2023-08-08T07:51:00;3.70;;;2.00;;
7406;SDS011;3745;56.964;24.128;2023-08-08T07:53:25;1.90;;;1.73;;
7406;SDS011;3745;56.964;24.128;2023-08-08T07:55:51;3.38;;;2.70;;
7406;SDS011;3745;56.964;24.128;2023-08-08T07:58:16;5.00;;;2.10;;
7406;SDS011;3745;56.964;24.128;2023-08-08T08:00:42;4.68;;;1.98;;
7406;SDS011;3745;56.964;24.128;2023-08-08T08:03:08;8.90;;;2.72;;
7406;SDS011;3745;56.964;24.128;2023-08-08T08:05:34;6.15;;;2.63;;
7406;SDS011;3745;56.964;24.128;2023-08-08T08:07:59;11.82;;;2.53;;
7406;SDS011;3745;56.964;24.128;2023-08-08T08:10:25;5.88;;;2.25;;
7406;SDS011;3745;56.964;24.128;2023-08-08T08:12:51;4.57;;;2.47;;
7406;SDS011;3745;56.964;24.128;2023-08-08T08:15:22;6.20;;;2.50;;
7406;SDS011;3745;56.964;24.128;2023-08-08T08:17:49;5.30;;;2.00;;
7406;SDS011;3745;56.964;24.128;2023-08-08T08:20:14;7.35;;;2.40;;
7406;SDS011;3745;56.964;24.128;2023-08-08T08:22:40;3.78;;;2.63;;
7406;SDS011;3745;56.964;24.128;2023-08-08T08:25:06;7.38;;;2.25;;
7406;SDS011;3745;56.964;24.128;2023-08-08T08:27:34;6.88;;;2.40;;
7406;SDS011;3745;56.964;24.128;2023-08-08T08:30:02;4.72;;;2.08;;
7406;SDS011;3745;56.964;24.128;2023-08-08T08:32:34;5.97;;;2.30;;
7406;SDS011;3745;56.964;24.128;2023-08-08T08:35:04;3.17;;;1.88;;
7406;SDS011;3745;56.964;24.128;2023-08-08T08:37:31;5.45;;;2.70;;
7406;SDS011;3745;56.964;24.128;2023-08-08T08:39:57;7.55;;;3.00;;
7406;SDS011;3745;56.964;24.128;2023-08-08T08:42:23;5.70;;;2.28;;
7406;SDS011;3745;56.964;24.128;2023-08-08T08:44:49;5.55;;;2.65;;
7406;SDS011;3745;56.964;24.128;2023-08-08T08:47:17;3.63;;;2.45;;
7406;SDS011;3745;56.964;24.128;2023-08-08T08:49:44;2.80;;;2.53;;
7406;SDS011;3745;56.964;24.128;2023-08-08T08:52:11;3.47;;;2.20;;
7406;SDS011;3745;56.964;24.128;2023-08-08T08:54:37;4.28;;;2.28;;
7406;SDS011;3745;56.964;24.128;2023-08-08T08:57:03;9.48;;;2.58;;
7406;SDS011;3745;56.964;24.128;2023-08-08T08:59:29;8.75;;;2.38;;
7406;SDS011;3745;56.964;24.128;2023-08-08T09:01:55;6.28;;;2.60;;
7406;SDS011;3745;56.964;24.128;2023-08-08T09:04:22;5.15;;;3.00;;
7406;SDS011;3745;56.964;24.128;2023-08-08T09:06:48;10.07;;;2.60;;
7406;SDS011;3745;56.964;24.128;2023-08-08T09:09:15;3.58;;;2.53;;
7406;SDS011;3745;56.964;24.128;2023-08-08T09:11:53;4.40;;;2.40;;
7406;SDS011;3745;56.964;24.128;2023-08-08T09:14:23;6.72;;;2.33;;
7406;SDS011;3745;56.964;24.128;2023-08-08T09:16:50;4.20;;;2.13;;
7406;SDS011;3745;56.964;24.128;2023-08-08T09:19:18;4.82;;;2.33;;
7406;SDS011;3745;56.964;24.128;2023-08-08T09:21:44;5.35;;;2.63;;
7406;SDS011;3745;56.964;24.128;2023-08-08T09:24:10;4.30;;;2.75;;
7406;SDS011;3745;56.964;24.128;2023-08-08T09:26:36;7.22;;;2.40;;
7406;SDS011;3745;56.964;24.128;2023-08-08T09:29:03;4.07;;;2.45;;
7406;SDS011;3745;56.964;24.128;2023-08-08T09:31:28;8.80;;;2.45;;
7406;SDS011;3745;56.964;24.128;2023-08-08T09:33:58;6.05;;;2.55;;
7406;SDS011;3745;56.964;24.128;2023-08-08T09:36:24;7.82;;;2.67;;
7406;SDS011;3745;56.964;24.128;2023-08-08T09:38:50;7.53;;;2.65;;
7406;SDS011;3745;56.964;24.128;2023-08-08T09:41:18;11.93;;;2.47;;
7406;SDS011;3745;56.964;24.128;2023-08-08T09:43:45;6.28;;;2.45;;
7406;SDS011;3745;56.964;24.128;2023-08-08T09:46:11;4.82;;;2.47;;
7406;SDS011;3745;56.964;24.128;2023-08-08T09:48:37;8.05;;;2.75;;
7406;SDS011;3745;56.964;24.128;2023-08-08T09:51:07;3.42;;;2.40;;
7406;SDS011;3745;56.964;24.128;2023-08-08T09:53:33;5.22;;;2.65;;
7406;SDS011;3745;56.964;24.128;2023-08-08T09:56:00;6.55;;;2.35;;
7406;SDS011;3745;56.964;24.128;2023-08-08T09:58:28;3.63;;;2.72;;
7406;SDS011;3745;56.964;24.128;2023-08-08T10:00:54;4.53;;;2.20;;
7406;SDS011;3745;56.964;24.128;2023-08-08T10:03:20;4.38;;;2.45;;
7406;SDS011;3745;56.964;24.128;2023-08-08T10:05:46;10.18;;;3.25;;
7406;SDS011;3745;56.964;24.128;2023-08-08T10:08:14;4.65;;;2.30;;
7406;SDS011;3745;56.964;24.128;2023-08-08T10:10:40;6.75;;;2.70;;
7406;SDS011;3745;56.964;24.128;2023-08-08T10:13:07;4.45;;;2.40;;
7406;SDS011;3745;56.964;24.128;2023-08-08T10:15:36;9.50;;;2.65;;
7406;SDS011;3745;56.964;24.128;2023-08-08T10:18:03;6.53;;;2.65;;
7406;SDS011;3745;56.964;24.128;2023-08-08T10:20:30;6.80;;;2.78;;
7406;SDS011;3745;56.964;24.128;2023-08-08T10:23:01;7.95;;;2.88;;
7406;SDS011;3745;56.964;24.128;2023-08-08T10:25:28;7.10;;;2.95;;
7406;SDS011;3745;56.964;24.128;2023-08-08T10:28:02;4.50;;;2.60;;
7406;SDS011;3745;56.964;24.128;2023-08-08T10:30:29;6.82;;;2.97;;
7406;SDS011;3745;56.964;24.128;2023-08-08T10:33:06;3.65;;;2.45;;
7406;SDS011;3745;56.964;24.128;2023-08-08T10:36:17;3.40;;;2.95;;
7406;SDS011;3745;56.964;24.128;2023-08-08T10:38:41;3.75;;;2.70;;
7406;SDS011;3745;56.964;24.128;2023-08-08T10:41:11;5.80;;;2.63;;
7406;SDS011;3745;56.964;24.128;2023-08-08T10:43:57;6.65;;;3.08;;
7406;SDS011;3745;56.964;24.128;2023-08-08T10:46:35;6.63;;;2.85;;
7406;SDS011;3745;56.964;24.128;2023-08-08T10:49:05;4.70;;;2.88;;
7406;SDS011;3745;56.964;24.128;2023-08-08T10:51:35;4.97;;;2.45;;
7406;SDS011;3745;56.964;24.128;2023-08-08T10:54:22;4.60;;;2.83;;
7406;SDS011;3745;56.964;24.128;2023-08-08T10:56:53;5.97;;;3.17;;
7406;SDS011;3745;56.964;24.128;2023-08-08T10:59:21;7.97;;;3.10;;
7406;SDS011;3745;56.964;24.128;2023-08-08T11:02:07;6.78;;;2.85;;
7406;SDS011;3745;56.964;24.128;2023-08-08T11:04:33;11.43;;;2.85;;
7406;SDS011;3745;56.964;24.128;2023-08-08T11:06:59;5.95;;;2.78;;
7406;SDS011;3745;56.964;24.128;2023-08-08T11:09:26;9.90;;;3.00;;
7406;SDS011;3745;56.964;24.128;2023-08-08T11:11:52;5.15;;;2.83;;
7406;SDS011;3745;56.964;24.128;2023-08-08T11:14:18;7.05;;;2.63;;
7406;SDS011;3745;56.964;24.128;2023-08-08T11:16:46;6.15;;;2.58;;
7406;SDS011;3745;56.964;24.128;2023-08-08T11:19:13;6.68;;;2.92;;
7406;SDS011;3745;56.964;24.128;2023-08-08T11:21:40;6.38;;;3.00;;
7406;SDS011;3745;56.964;24.128;2023-08-08T11:24:07;5.65;;;2.72;;
7406;SDS011;3745;56.964;24.128;2023-08-08T11:26:34;4.72;;;2.35;;
7406;SDS011;3745;56.964;24.128;2023-08-08T11:29:01;8.55;;;3.38;;
7406;SDS011;3745;56.964;24.128;2023-08-08T11:31:28;4.95;;;2.72;;
7406;SDS011;3745;56.964;24.128;2023-08-08T11:33:54;6.30;;;2.78;;
7406;SDS011;3745;56.964;24.128;2023-08-08T11:36:21;5.57;;;2.80;;
7406;SDS011;3745;56.964;24.128;2023-08-08T11:38:49;5.45;;;2.45;;
7406;SDS011;3745;56.964;24.128;2023-08-08T11:41:16;5.30;;;2.75;;
7406;SDS011;3745;56.964;24.128;2023-08-08T11:43:45;6.10;;;2.70;;
7406;SDS011;3745;56.964;24.128;2023-08-08T11:46:14;6.82;;;2.50;;
7406;SDS011;3745;56.964;24.128;2023-08-08T11:48:41;5.95;;;2.85;;
7406;SDS011;3745;56.964;24.128;2023-08-08T11:51:07;8.43;;;2.33;;
7406;SDS011;3745;56.964;24.128;2023-08-08T11:53:34;4.50;;;2.50;;
7406;SDS011;3745;56.964;24.128;2023-08-08T11:56:00;6.15;;;2.33;;
7406;SDS011;3745;56.964;24.128;2023-08-08T11:58:28;3.42;;;2.17;;
7406;SDS011;3745;56.964;24.128;2023-08-08T12:00:56;6.65;;;2.45;;
7406;SDS011;3745;56.964;24.128;2023-08-08T12:03:22;6.80;;;2.50;;
7406;SDS011;3745;56.964;24.128;2023-08-08T12:05:50;7.27;;;2.60;;
7406;SDS011;3745;56.964;24.128;2023-08-08T12:08:19;8.57;;;2.72;;
7406;SDS011;3745;56.964;24.128;2023-08-08T12:10:49;4.50;;;2.15;;
7406;SDS011;3745;56.964;24.128;2023-08-08T12:13:21;5.57;;;2.63;;
7406;SDS011;3745;56.964;24.128;2023-08-08T12:15:53;4.38;;;2.35;;
7406;SDS011;3745;56.964;24.128;2023-08-08T12:18:19;3.20;;;2.30;;
7406;SDS011;3745;56.964;24.128;2023-08-08T12:20:45;7.03;;;2.78;;
7406;SDS011;3745;56.964;24.128;2023-08-08T12:23:11;5.57;;;2.53;;
7406;SDS011;3745;56.964;24.128;2023-08-08T12:25:38;3.80;;;2.33;;
7406;SDS011;3745;56.964;24.128;2023-08-08T12:28:04;6.50;;;2.35;;
7406;SDS011;3745;56.964;24.128;2023-08-08T12:30:30;8.00;;;2.63;;
7406;SDS011;3745;56.964;24.128;2023-08-08T12:32:56;2.58;;;2.20;;
7406;SDS011;3745;56.964;24.128;2023-08-08T12:35:22;3.40;;;2.50;;
7406;SDS011;3745;56.964;24.128;2023-08-08T12:37:48;3.83;;;1.98;;
7406;SDS011;3745;56.964;24.128;2023-08-08T12:40:13;6.28;;;2.38;;
7406;SDS011;3745;56.964;24.128;2023-08-08T12:42:39;6.78;;;2.65;;
7406;SDS011;3745;56.964;24.128;2023-08-08T12:45:05;7.13;;;2.63;;
7406;SDS011;3745;56.964;24.128;2023-08-08T12:47:32;3.60;;;2.22;;
7406;SDS011;3745;56.964;24.128;2023-08-08T12:50:01;6.25;;;2.35;;
7406;SDS011;3745;56.964;24.128;2023-08-08T12:52:27;4.88;;;2.63;;
7406;SDS011;3745;56.964;24.128;2023-08-08T12:54:53;3.10;;;2.50;;
7406;SDS011;3745;56.964;24.128;2023-08-08T12:57:19;4.35;;;2.38;;
7406;SDS011;3745;56.964;24.128;2023-08-08T12:59:44;5.20;;;2.85;;
7406;SDS011;3745;56.964;24.128;2023-08-08T13:02:10;4.97;;;3.28;;
7406;SDS011;3745;56.964;24.128;2023-08-08T13:04:36;5.60;;;2.83;;
7406;SDS011;3745;56.964;24.128;2023-08-08T13:07:01;4.30;;;2.55;;
7406;SDS011;3745;56.964;24.128;2023-08-08T13:09:27;6.18;;;2.42;;
7406;SDS011;3745;56.964;24.128;2023-08-08T13:11:53;3.63;;;2.75;;
7406;SDS011;3745;56.964;24.128;2023-08-08T13:14:19;3.63;;;2.22;;
7406;SDS011;3745;56.964;24.128;2023-08-08T13:16:47;3.58;;;2.15;;
7406;SDS011;3745;56.964;24.128;2023-08-08T13:19:12;4.05;;;2.40;;
7406;SDS011;3745;56.964;24.128;2023-08-08T13:21:40;3.60;;;2.45;;
7406;SDS011;3745;56.964;24.128;2023-08-08T13:24:05;4.80;;;2.28;;
7406;SDS011;3745;56.964;24.128;2023-08-08T13:26:32;1.90;;;1.80;;
7406;SDS011;3745;56.964;24.128;2023-08-08T13:28:57;4.43;;;2.28;;
7406;SDS011;3745;56.964;24.128;2023-08-08T13:31:23;3.97;;;2.47;;
7406;SDS011;3745;56.964;24.128;2023-08-08T13:33:48;2.67;;;2.22;;
7406;SDS011;3745;56.964;24.128;2023-08-08T13:36:14;2.90;;;2.20;;
7406;SDS011;3745;56.964;24.128;2023-08-08T13:38:40;4.82;;;2.75;;
7406;SDS011;3745;56.964;24.128;2023-08-08T13:41:05;5.38;;;2.70;;
7406;SDS011;3745;56.964;24.128;2023-08-08T13:43:31;2.72;;;2.33;;
7406;SDS011;3745;56.964;24.128;2023-08-08T13:45:56;3.58;;;2.67;;
7406;SDS011;3745;56.964;24.128;2023-08-08T13:48:22;4.57;;;2.15;;
7406;SDS011;3745;56.964;24.128;2023-08-08T13:50:47;5.72;;;2.30;;
7406;SDS011;3745;56.964;24.128;2023-08-08T13:53:13;3.07;;;2.30;;
7406;SDS011;3745;56.964;24.128;2023-08-08T13:55:39;2.83;;;2.58;;
7406;SDS011;3745;56.964;24.128;2023-08-08T13:58:06;3.58;;;2.70;;
7406;SDS011;3745;56.964;24.128;2023-08-08T14:00:32;3.97;;;2.92;;
7406;SDS011;3745;56.964;24.128;2023-08-08T14:02:58;4.20;;;2.25;;
7406;SDS011;3745;56.964;24.128;2023-08-08T14:05:24;6.15;;;2.67;;
7406;SDS011;3745;56.964;24.128;2023-08-08T14:07:52;5.60;;;2.45;;
7406;SDS011;3745;56.964;24.128;2023-08-08T14:10:17;6.38;;;2.55;;
7406;SDS011;3745;56.964;24.128;2023-08-08T14:12:43;2.80;;;2.28;;
7406;SDS011;3745;56.964;24.128;2023-08-08T14:15:09;3.53;;;2.50;;
7406;SDS011;3745;56.964;24.128;2023-08-08T14:17:34;3.17;;;2.15;;
7406;SDS011;3745;56.964;24.128;2023-08-08T14:20:00;5.03;;;2.47;;
7406;SDS011;3745;56.964;24.128;2023-08-08T14:22:26;5.05;;;3.78;;
7406;SDS011;3745;56.964;24.128;2023-08-08T14:24:52;3.25;;;2.47;;
7406;SDS011;3745;56.964;24.128;2023-08-08T14:27:17;2.63;;;2.40;;
7406;SDS011;3745;56.964;24.128;2023-08-08T14:29:43;5.50;;;2.47;;
7406;SDS011;3745;56.964;24.128;2023-08-08T14:32:08;4.90;;;2.40;;
7406;SDS011;3745;56.964;24.128;2023-08-08T14:34:35;4.00;;;2.50;;
7406;SDS011;3745;56.964;24.128;2023-08-08T14:37:03;3.97;;;2.22;;
7406;SDS011;3745;56.964;24.128;2023-08-08T14:39:29;2.53;;;2.30;;
7406;SDS011;3745;56.964;24.128;2023-08-08T14:41:55;7.57;;;2.95;;
7406;SDS011;3745;56.964;24.128;2023-08-08T14:44:21;2.53;;;2.10;;
7406;SDS011;3745;56.964;24.128;2023-08-08T14:46:47;3.28;;;2.35;;
7406;SDS011;3745;56.964;24.128;2023-08-08T14:49:12;2.53;;;2.33;;
7406;SDS011;3745;56.964;24.128;2023-08-08T14:51:38;3.85;;;2.83;;
7406;SDS011;3745;56.964;24.128;2023-08-08T14:54:04;3.15;;;2.28;;
7406;SDS011;3745;56.964;24.128;2023-08-08T14:56:30;5.35;;;2.50;;
7406;SDS011;3745;56.964;24.128;2023-08-08T14:58:55;4.65;;;2.60;;
7406;SDS011;3745;56.964;24.128;2023-08-08T15:01:21;7.22;;;2.58;;
7406;SDS011;3745;56.964;24.128;2023-08-08T15:03:47;3.28;;;2.50;;
7406;SDS011;3745;56.964;24.128;2023-08-08T15:06:13;5.35;;;2.65;;
7406;SDS011;3745;56.964;24.128;2023-08-08T15:08:39;3.47;;;2.53;;
7406;SDS011;3745;56.964;24.128;2023-08-08T15:11:04;4.88;;;2.65;;